x

Caribbean Valley - 76 Nm Ssw Of Plymouth, Montserrat (42060) Wave Buoy

9:50pm - Fri 27th Mar 2015 All times are AST. -4 hours from GMT.

  • Sig Wave height 6.2ft
  • Swell Direction
  • Peak Period 6s
  • Average Period 5s
  • Wind
    20mph, 25mph gusts
  • Sea Temp 80°f
  • Air Temp 80°f
  • Sea Pressure 1018.5mb
  • Caribbean Valley - 76 Nm Ssw Of Plymouth, Montserrat
  • Caribbean Valley - 76 Nm Ssw Of Plymouth, Montserrat

More Historic Weather Station data

Upgrade to MSW Pro to gain access to the past 30 days of data for over 8000 Wavebouys and Weather Stations around the globe.

Join Pro

Comparision Forecast

View Surf forecast
   
Fri 03/27 9:50pm 6ft 6s 5s 20 25 mph 1018.5mb 80f 80f
8:50pm 6ft 6s 5s 20 25 mph 1018mb 80f 79f
7:50pm 5.5ft 6s 5s 13 16 mph 1017.6mb 80f 78f
6:50pm 5.5ft 6s 5s 13 18 mph 1016.9mb 80f 79f
5:50pm 5ft 7s 5s 13 20 mph 1016.5mb 80f 79f
4:50pm 5ft 6s 5s 9
mph
1016.3mb 80f 80f
3:50pm 5ft 6s 5s 18 20 mph 1016.1mb 80f 79f
2:50pm 5ft 6s 5s 18 22 mph 1016.3mb 80f 79f
1:50pm 6ft 6s 5s 18 20 mph 1017mb 80f 79f
12:50pm 6ft 6s 5s 18 20 mph 1017.8mb 80f 79f
11:50am 6ft 6s 5s 20 25 mph 1018.4mb 80f 79f
10:50am 6ft 6s 5s 20 22 mph 1019.1mb 80f 79f
9:50am 6ft 6s 5s 22 27 mph 1018.8mb 80f 79f
8:50am 6.5ft 6s 5s 22 25 mph 1018.4mb 80f 79f
7:50am 6ft 6s 5s 22 27 mph 1017.6mb 80f 79f
6:50am 6ft 6s 5s 22 27 mph 1017.1mb 80f 79f
5:50am 5.5ft 6s 5s 22 27 mph 1016.4mb 80f 78f
4:50am 6ft 6s 5s 22 27 mph 1015.8mb 80f 78f
3:50am 5ft 6s 5s 22 27 mph 1015.8mb 80f 78f
2:50am 5ft 5s 5s 22 27 mph 1015.7mb 80f 78f
1:50am 4.5ft 6s 5s 20 25 mph 1016.3mb 80f 78f
12:50am 5.5ft 6s 5s 20 25 mph 1016.7mb 80f 78f
Thu 03/26 11:50pm 5ft 6s 5s 22 27 mph 1016.9mb 80f 78f
10:50pm 5ft 6s 5s 22 27 mph 1017.2mb 80f 79f
9:50pm 5ft 6s 5s 22 25 mph 1017.2mb 80f 79f
8:50pm 4.5ft 5s 4s 20 22 mph 1017mb 80f 79f
7:50pm 4.5ft 6s 5s 20 25 mph 1016.3mb 80f 79f
6:50pm 4.5ft 6s 5s 20 22 mph 1016mb 80f 79f
5:50pm 4ft 5s 5s 18 20 mph 1015.6mb 80f 79f
4:50pm 4ft 5s 5s 18 20 mph 1015.4mb 80f 79f
3:50pm 4ft 5s 4s 18 20 mph 1015.5mb 80f 79f
2:50pm 4ft 5s 4s 18 20 mph 1015.7mb 80f 79f
1:50pm 4ft 5s 5s 18 20 mph 1016.3mb 80f 79f
12:50pm 4ft 5s 5s 18 20 mph 1017mb 80f 79f
11:50am 4ft 5s 5s 18 22 mph 1017.8mb 80f 79f
10:50am 4ft 5s 4s 18 20 mph 1018.2mb 80f 79f
9:50am 4ft 5s 5s 18 20 mph 1018mb 80f 78f
8:50am 4.5ft 5s 5s 16 20 mph 1017.9mb 80f 78f
7:50am 4.5ft 5s 5s 18 20 mph 1017.4mb 80f 78f
6:50am 4.5ft 5s 5s 20 22 mph 1016.7mb 80f 78f
5:50am 4.5ft 5s 5s 20 22 mph 1015.9mb 80f 78f
4:50am 4.5ft 5s 5s 20 25 mph 1015.6mb 80f 78f
3:50am 4.5ft 5s 4s 20 25 mph 1015.5mb 80f 78f
2:50am 4ft 5s 5s 20 25 mph 1015.7mb 80f 78f
1:50am 3.5ft 5s 5s 18 22 mph 1016.3mb 80f 78f
12:50am 4ft 5s 5s 18 20 mph 1017mb 80f 78f
Wed 03/25 11:50pm 4ft 5s 5s 16 18 mph 1017.8mb 80f 79f
10:50pm 3.5ft 5s 4s 16 18 mph 1018.1mb 80f 79f
9:50pm 4ft 5s 4s 18 20 mph 1018.1mb 80f 79f
8:50pm 4ft 5s 4s 16 20 mph 1017.6mb 80f 79f
7:50pm 3.5ft 5s 4s 16 20 mph 1016.9mb 80f 79f
6:50pm 3.5ft 6s 5s 16 18 mph 1016.4mb 80f 79f
5:50pm 3ft 5s 4s 13 18 mph 1016.1mb 80f 79f
4:50pm 3.5ft 5s 4s 13 16 mph 1015.9mb 80f 80f
3:50pm 3.5ft 5s 4s 16
mph
1016mb 80f 80f
2:50pm 3.5ft 5s 4s 16 18 mph 1016.3mb 80f 79f
1:50pm 3.5ft 5s 4s 16 18 mph 1017mb 81f 79f
12:50pm 3.5ft 5s 5s 16 18 mph 1017.7mb 80f 79f
11:50am 3.5ft 5s 4s 16 20 mph 1018.3mb 80f 79f
10:50am 3.5ft 5s 4s 18 20 mph 1018.6mb 80f 79f
9:50am 4ft 5s 4s 18 20 mph 1018.6mb 80f 79f
8:50am 4ft 5s 4s 18 20 mph 1018.2mb 80f 79f
7:50am 4ft 5s 4s 18 22 mph 1017.6mb 80f 79f
6:50am 3.5ft 5s 4s 18 20 mph 1016.8mb 80f 79f
5:50am 3.5ft 5s 4s 18 22 mph 1016.3mb 80f 78f
4:50am 3.5ft 5s 4s 18 22 mph 1016mb 80f 78f
3:50am 3.5ft 5s 4s 20 22 mph 1015.8mb 80f 79f
2:50am 3.5ft 5s 4s 18 20 mph 1016.1mb 80f 79f
1:50am 3.5ft 5s 4s 18 20 mph 1016.7mb 80f 79f
12:50am 3.5ft 5s 4s 18 20 mph 1017.5mb 80f 79f
Tue 03/24 11:50pm 3.5ft 4s 4s 18 20 mph 1017.9mb 80f 79f
9:50pm 3.5ft 4s 4s 18 20 mph 1018.3mb 80f 79f
8:50pm 3ft 5s 4s 18 20 mph 1017.9mb 80f 79f
7:50pm 2.5ft 5s 4s 16 18 mph 1017.5mb 80f 79f
6:50pm 3ft 4s 4s 13 16 mph 1017.1mb 80f 79f
5:50pm 3ft 5s 4s 13 16 mph 1016.6mb 81f 80f
4:50pm 3ft 4s 4s 13 16 mph 1016.4mb 81f 79f
3:50pm 3ft 5s 5s 13 18 mph 1016.6mb 81f 79f
2:50pm 3ft 5s 4s 13 16 mph 1017.2mb 81f 79f
1:50pm 3.5ft 5s 4s 13 16 mph 1017.9mb 81f 79f
12:50pm 3.5ft 5s 4s 13 16 mph 1018.5mb 81f 79f
11:50am 3.5ft 5s 4s 13 16 mph 1019.1mb 80f 79f
10:50am 3.5ft 5s 4s 16 18 mph 1019.4mb 80f 79f
9:50am 3.5ft 5s 4s 16 20 mph 1019.1mb 80f 79f
8:50am 3.5ft 4s 4s 16 20 mph 1018.6mb 80f 79f
7:50am 3.5ft 5s 4s 18 22 mph 1017.9mb 80f 79f
6:50am 3.5ft 5s 4s 18 22 mph 1016.9mb 80f 78f
5:50am 3.5ft 5s 4s 18 22 mph 1016.5mb 80f 78f
4:50am 3ft 5s 4s 16 18 mph 1016.3mb 80f 78f
3:50am 3ft 5s 4s 16 20 mph 1016.1mb 80f 78f
2:50am 3ft 6s 5s 16 18 mph 1016.2mb 80f 78f